Time;durP1;ratioP1;P1;durP2;ratioP2;P2;SDS_P1;SDS_P2;PMS_P1;PMS_P2;Temp;Humidity;BMP_temperature;BMP_pressure;BME280_temperature;BME280_humidity;BME280_pressure;Samples;Min_cycle;Max_cycle;Signal;HPM_P1;HPM_P2
2023/09/08 00:02:25;;;;;;;11.90;8.17;;;;;;;16.06;100.00;94240.25;5090557;28;20050;-59
2023/09/08 00:04:52;;;;;;;11.25;7.85;;;;;;;16.00;100.00;94236.50;5089686;28;20044;-59
2023/09/08 00:07:19;;;;;;;10.70;7.95;;;;;;;15.95;100.00;94228.72;5090072;28;20392;-59
2023/09/08 00:09:46;;;;;;;10.50;7.75;;;;;;;15.91;100.00;94228.81;5090167;28;20725;-59
2023/09/08 00:12:13;;;;;;;11.77;7.57;;;;;;;15.88;100.00;94240.03;5090972;28;20512;-59
2023/09/08 00:14:40;;;;;;;10.83;7.87;;;;;;;15.74;100.00;94232.94;5090289;28;20416;-59
2023/09/08 00:17:07;;;;;;;13.23;8.50;;;;;;;15.71;100.00;94231.00;5090925;28;20074;-60
2023/09/08 00:19:33;;;;;;;11.05;8.25;;;;;;;15.68;100.00;94229.91;5077365;28;20092;-59
2023/09/08 00:22:01;;;;;;;13.52;7.50;;;;;;;15.66;100.00;94232.34;5096222;28;20056;-60
2023/09/08 00:24:27;;;;;;;11.15;7.68;;;;;;;15.61;100.00;94232.88;5075326;28;20046;-59
2023/09/08 00:26:54;;;;;;;12.63;8.50;;;;;;;15.58;100.00;94233.75;5090547;28;20481;-59
2023/09/08 00:29:21;;;;;;;14.18;9.38;;;;;;;15.59;100.00;94232.53;5090086;28;20078;-59
2023/09/08 00:31:48;;;;;;;13.43;9.00;;;;;;;15.61;100.00;94234.88;5090569;28;20036;-59
2023/09/08 00:34:14;;;;;;;11.88;8.27;;;;;;;15.60;100.00;94233.34;5090402;28;20088;-59
2023/09/08 00:36:41;;;;;;;13.52;8.05;;;;;;;15.58;100.00;94234.53;5089915;28;20054;-59
2023/09/08 00:39:08;;;;;;;11.23;8.00;;;;;;;15.58;100.00;94223.47;5090506;28;20040;-59
2023/09/08 00:41:35;;;;;;;13.27;7.88;;;;;;;15.54;100.00;94225.56;5089981;28;20397;-59
2023/09/08 00:44:02;;;;;;;10.88;7.60;;;;;;;15.51;100.00;94218.16;5090164;28;20043;-59
2023/09/08 00:46:30;;;;;;;11.52;7.78;;;;;;;15.53;100.00;94214.94;5089707;28;20047;-60
2023/09/08 00:48:57;;;;;;;12.55;7.53;;;;;;;15.49;100.00;94211.50;5090110;28;20144;-59
2023/09/08 00:51:24;;;;;;;12.00;8.00;;;;;;;15.50;100.00;94210.28;5089896;28;20048;-59
2023/09/08 00:53:51;;;;;;;10.57;7.68;;;;;;;15.42;100.00;94217.25;5090003;28;20044;-59
2023/09/08 00:56:18;;;;;;;20.30;12.65;;;;;;;15.40;100.00;94216.91;5090045;28;20533;-59
2023/09/08 00:58:46;;;;;;;14.98;9.95;;;;;;;15.40;100.00;94211.38;5089630;28;20490;-59
2023/09/08 01:01:13;;;;;;;12.23;8.35;;;;;;;15.37;100.00;94207.50;5090131;28;20105;-59
2023/09/08 01:03:39;;;;;;;12.00;8.10;;;;;;;15.35;100.00;94215.44;5089748;28;20056;-59
2023/09/08 01:06:06;;;;;;;10.70;7.72;;;;;;;15.36;100.00;94208.72;5089708;28;20036;-59
2023/09/08 01:08:35;;;;;;;13.50;8.13;;;;;;;15.33;100.00;94212.34;5089415;28;20066;-59
2023/09/08 01:11:02;;;;;;;12.05;8.07;;;;;;;15.28;100.00;94216.44;5089773;28;20048;-59
2023/09/08 01:13:29;;;;;;;11.18;8.00;;;;;;;15.12;100.00;94217.28;5089284;28;20040;-59
2023/09/08 01:15:56;;;;;;;11.87;8.07;;;;;;;15.11;100.00;94212.97;5089896;28;20073;-59
2023/09/08 01:18:22;;;;;;;13.02;8.13;;;;;;;15.10;100.00;94207.88;5089170;28;20492;-59
2023/09/08 01:21:16;;;;;;;13.80;7.97;;;;;;;15.08;100.00;94213.06;5089659;28;20484;-59
2023/09/08 01:24:09;;;;;;;11.50;7.82;;;;;;;15.10;100.00;94213.41;5089459;28;20043;-59
2023/09/08 01:26:40;;;;;;;10.95;7.93;;;;;;;15.07;100.00;94206.78;5089233;28;20065;-59
2023/09/08 01:29:10;;;;;;;17.13;8.13;;;;;;;15.05;100.00;94203.66;5089767;28;20040;-59
2023/09/08 01:31:38;;;;;;;13.88;7.95;;;;;;;15.05;100.00;94208.41;5080156;28;20048;-59
2023/09/08 01:34:06;;;;;;;10.90;7.13;;;;;;;15.03;100.00;94206.09;5085696;28;20051;-59
2023/09/08 01:36:35;;;;;;;11.93;7.85;;;;;;;15.01;100.00;94203.00;5088750;28;20055;-59
2023/09/08 01:39:02;;;;;;;12.05;7.88;;;;;;;15.00;100.00;94208.97;5089248;28;20044;-59
2023/09/08 01:41:31;;;;;;;12.57;7.60;;;;;;;14.90;100.00;94206.03;5087810;28;20055;-59
2023/09/08 01:43:59;;;;;;;10.50;7.25;;;;;;;14.84;100.00;94205.03;5089220;28;20056;-59
2023/09/08 01:46:26;;;;;;;11.60;8.20;;;;;;;14.80;100.00;94198.03;5089118;28;20048;-59
2023/09/08 01:48:53;;;;;;;11.60;8.20;;;;;;;14.78;100.00;94199.25;5089201;28;20054;-59
2023/09/08 01:51:19;;;;;;;12.68;8.13;;;;;;;14.77;100.00;94196.94;5089216;28;20040;-59
2023/09/08 01:53:46;;;;;;;11.97;7.83;;;;;;;14.77;100.00;94194.94;5088206;28;20751;-59
2023/09/08 01:56:13;;;;;;;12.85;8.07;;;;;;;14.73;100.00;94191.50;5076183;28;20048;-59
2023/09/08 01:58:40;;;;;;;10.73;8.00;;;;;;;14.72;100.00;94191.94;5088704;28;20058;-59
2023/09/08 02:01:06;;;;;;;12.77;7.97;;;;;;;14.72;100.00;94192.69;5089130;28;20040;-59
2023/09/08 02:03:33;;;;;;;11.60;8.02;;;;;;;14.68;100.00;94188.50;5088650;28;20055;-59
2023/09/08 02:06:00;;;;;;;14.67;8.40;;;;;;;14.69;100.00;94190.81;5088965;28;20044;-59
2023/09/08 02:08:27;;;;;;;11.90;8.20;;;;;;;14.68;100.00;94196.78;5088712;28;20052;-59
2023/09/08 02:10:54;;;;;;;12.45;8.70;;;;;;;14.63;100.00;94189.81;5089231;28;20050;-59
2023/09/08 02:13:20;;;;;;;13.35;8.50;;;;;;;14.64;100.00;94188.56;5088791;28;20071;-58
2023/09/08 02:15:47;;;;;;;11.10;7.85;;;;;;;14.64;100.00;94185.81;5088856;28;20040;-59
2023/09/08 02:18:14;;;;;;;11.67;8.07;;;;;;;14.63;100.00;94186.25;5089100;28;20033;-59
2023/09/08 02:20:41;;;;;;;13.15;8.65;;;;;;;14.64;100.00;94187.81;5088357;28;20044;-60
2023/09/08 02:23:08;;;;;;;14.20;9.00;;;;;;;14.60;100.00;94184.38;5089111;28;20048;-59
2023/09/08 02:25:35;;;;;;;14.32;9.13;;;;;;;14.52;100.00;94192.78;5088749;28;20060;-59
2023/09/08 02:28:02;;;;;;;14.07;9.40;;;;;;;14.50;100.00;94188.94;5089044;28;20048;-59
2023/09/08 02:30:29;;;;;;;17.93;9.00;;;;;;;14.48;100.00;94188.59;5089902;28;20073;-59
2023/09/08 02:32:55;;;;;;;13.30;9.05;;;;;;;14.45;100.00;94189.47;5092855;28;20040;-59
2023/09/08 02:35:24;;;;;;;14.40;9.38;;;;;;;14.43;100.00;94195.41;5092244;28;20054;-59
2023/09/08 02:37:51;;;;;;;14.85;9.60;;;;;;;14.42;100.00;94195.84;5092672;28;20033;-59
2023/09/08 02:40:20;;;;;;;14.45;9.40;;;;;;;14.39;100.00;94195.50;5092500;28;20070;-59
2023/09/08 02:42:47;;;;;;;13.63;9.40;;;;;;;14.39;100.00;94187.22;5091982;28;21320;-59
2023/09/08 02:45:14;;;;;;;13.60;9.10;;;;;;;14.36;100.00;94190.06;5092760;28;20446;-59
2023/09/08 02:47:41;;;;;;;13.75;9.38;;;;;;;14.33;100.00;94190.94;5092241;28;20054;-59
2023/09/08 02:50:08;;;;;;;14.23;9.80;;;;;;;14.29;100.00;94198.53;5092450;28;20403;-59
2023/09/08 02:52:35;;;;;;;15.30;9.80;;;;;;;14.28;100.00;94194.97;5092033;28;20412;-59
2023/09/08 02:55:01;;;;;;;15.57;10.53;;;;;;;14.06;100.00;94199.47;5092575;28;20048;-59
2023/09/08 02:57:28;;;;;;;14.32;9.90;;;;;;;14.06;100.00;94194.72;5091978;28;20059;-60
2023/09/08 02:59:56;;;;;;;15.35;9.57;;;;;;;14.10;100.00;94195.44;5092450;28;20044;-59
2023/09/08 03:02:26;;;;;;;14.93;10.25;;;;;;;14.13;100.00;94193.81;5083384;28;20078;-59
2023/09/08 03:04:53;;;;;;;16.60;10.10;;;;;;;14.14;100.00;94196.09;5086498;28;20400;-59
2023/09/08 03:07:20;;;;;;;16.00;10.27;;;;;;;14.06;100.00;94194.72;5092324;28;20052;-59
2023/09/08 03:09:47;;;;;;;17.80;10.05;;;;;;;14.08;100.00;94191.56;5091231;28;21498;-58
2023/09/08 03:12:14;;;;;;;15.32;9.52;;;;;;;14.06;100.00;94189.22;5091680;28;20567;-59
2023/09/08 03:14:41;;;;;;;14.57;10.02;;;;;;;14.09;100.00;94184.84;5091609;28;20138;-59
2023/09/08 03:17:08;;;;;;;15.43;9.70;;;;;;;14.02;100.00;94187.75;5092085;28;20043;-59
2023/09/08 03:19:34;;;;;;;15.97;10.73;;;;;;;13.97;100.00;94184.31;5091596;28;20040;-59
2023/09/08 03:22:02;;;;;;;14.02;10.13;;;;;;;13.95;100.00;94183.19;5091863;28;20046;-60
2023/09/08 03:24:28;;;;;;;15.57;10.40;;;;;;;13.95;100.00;94197.00;5091332;28;20040;-60
2023/09/08 03:26:56;;;;;;;16.05;10.15;;;;;;;13.91;100.00;94193.53;5091678;28;20397;-58
2023/09/08 03:29:23;;;;;;;14.73;10.30;;;;;;;13.89;100.00;94190.44;5091215;28;20048;-59
2023/09/08 03:31:50;;;;;;;41.60;23.77;;;;;;;13.88;100.00;94197.91;5091910;28;20032;-59
2023/09/08 03:34:20;;;;;;;18.05;12.35;;;;;;;13.83;100.00;94195.69;5091462;28;20141;-59
2023/09/08 03:36:49;;;;;;;18.85;11.20;;;;;;;13.85;100.00;94189.75;5090805;28;21738;-59
2023/09/08 03:39:16;;;;;;;17.48;11.32;;;;;;;13.88;100.00;94188.88;5091623;28;20044;-59
2023/09/08 03:41:42;;;;;;;16.88;11.15;;;;;;;13.88;100.00;94191.63;5089676;28;20043;-59
2023/09/08 03:44:09;;;;;;;16.77;11.20;;;;;;;13.85;100.00;94185.00;5091318;28;20048;-60
2023/09/08 03:46:36;;;;;;;15.60;10.98;;;;;;;13.86;100.00;94188.53;5090768;28;20032;-60
2023/09/08 03:49:03;;;;;;;17.80;10.98;;;;;;;13.84;100.00;94183.44;5091581;28;20093;-60
2023/09/08 03:51:30;;;;;;;16.08;11.40;;;;;;;13.76;100.00;94188.38;5077347;28;20044;-59
2023/09/08 03:53:57;;;;;;;19.40;11.88;;;;;;;13.75;100.00;94181.28;5091212;28;20048;-60
2023/09/08 03:56:23;;;;;;;21.07;11.90;;;;;;;13.73;100.00;94180.94;5090767;28;20048;-59
2023/09/08 03:58:51;;;;;;;16.95;11.50;;;;;;;13.73;100.00;94186.44;5091327;28;20378;-60
2023/09/08 04:01:17;;;;;;;18.05;11.82;;;;;;;13.74;100.00;94182.50;5091157;28;20442;-60
2023/09/08 04:03:44;;;;;;;16.52;11.10;;;;;;;13.72;100.00;94184.13;5090850;28;20438;-60
2023/09/08 04:06:11;;;;;;;17.90;11.55;;;;;;;13.71;100.00;94186.09;5090741;28;20048;-60
2023/09/08 04:08:38;;;;;;;15.33;10.30;;;;;;;13.69;100.00;94191.28;5089124;28;20048;-59
2023/09/08 04:11:04;;;;;;;17.38;10.85;;;;;;;13.73;100.00;94202.22;5090875;28;20051;-60
2023/09/08 04:13:31;;;;;;;18.00;11.07;;;;;;;13.72;100.00;94201.47;5090611;28;20412;-60
2023/09/08 04:15:59;;;;;;;17.30;11.63;;;;;;;13.68;100.00;94203.53;5090778;28;20381;-59
2023/09/08 04:18:25;;;;;;;17.83;11.80;;;;;;;13.62;100.00;94201.69;5090394;28;20571;-59
2023/09/08 04:20:52;;;;;;;18.20;11.43;;;;;;;13.65;100.00;94201.59;5090872;28;20040;-58
2023/09/08 04:23:19;;;;;;;16.48;11.27;;;;;;;13.64;100.00;94202.03;5090868;28;20055;-58
2023/09/08 04:25:46;;;;;;;18.00;11.40;;;;;;;13.64;100.00;94200.03;5092406;28;20419;-58
2023/09/08 04:28:13;;;;;;;17.33;11.90;;;;;;;13.51;100.00;94202.69;5101648;28;20047;-59
2023/09/08 04:30:39;;;;;;;17.92;11.82;;;;;;;13.50;100.00;94209.44;5090890;28;20039;-59
2023/09/08 04:33:06;;;;;;;19.70;11.93;;;;;;;13.57;100.00;94200.97;5090685;28;20117;-59
2023/09/08 04:35:33;;;;;;;17.67;12.48;;;;;;;13.56;100.00;94210.47;5089746;28;20040;-59
2023/09/08 04:38:00;;;;;;;18.33;11.60;;;;;;;13.56;100.00;94207.72;5090411;28;20044;-59
2023/09/08 04:40:30;;;;;;;18.48;11.65;;;;;;;13.57;100.00;94217.53;5090013;28;20066;-60
2023/09/08 04:42:57;;;;;;;19.05;11.90;;;;;;;13.46;100.00;94213.44;5090016;28;20067;-58
2023/09/08 04:45:23;;;;;;;20.13;12.00;;;;;;;13.40;100.00;94221.47;5089581;28;20046;-57
2023/09/08 04:47:50;;;;;;;22.33;12.00;;;;;;;13.43;100.00;94214.31;5090048;28;20442;-58
2023/09/08 04:50:17;;;;;;;18.25;12.18;;;;;;;13.50;100.00;94214.16;5090024;28;20144;-58
2023/09/08 04:52:45;;;;;;;17.15;11.15;;;;;;;13.57;100.00;94219.53;5089364;28;20036;-58
2023/09/08 04:55:11;;;;;;;16.58;11.10;;;;;;;13.57;100.00;94211.25;5088536;28;20048;-58
2023/09/08 04:57:38;;;;;;;16.80;11.27;;;;;;;13.53;100.00;94208.56;5089435;28;20058;-58
2023/09/08 05:00:06;;;;;;;18.10;11.13;;;;;;;13.57;100.00;94214.78;5088831;28;20567;-58
2023/09/08 05:02:33;;;;;;;17.02;10.93;;;;;;;13.68;100.00;94213.75;5091077;27;20047;-58
2023/09/08 05:05:00;;;;;;;16.65;11.18;;;;;;;13.71;100.00;94213.69;5093308;28;20055;-58
2023/09/08 05:07:27;;;;;;;16.27;11.00;;;;;;;13.71;100.00;94212.91;5087898;28;20048;-58
2023/09/08 05:09:53;;;;;;;19.33;11.50;;;;;;;13.72;100.00;94219.97;5089699;28;20040;-58
2023/09/08 05:12:23;;;;;;;16.38;10.63;;;;;;;13.78;100.00;94221.81;5088899;28;20054;-58
2023/09/08 05:14:55;;;;;;;18.55;12.00;;;;;;;13.66;100.00;94216.97;5089752;28;20065;-58
2023/09/08 05:17:26;;;;;;;17.83;11.40;;;;;;;13.72;100.00;94222.72;5089223;28;20036;-57
2023/09/08 05:19:53;;;;;;;17.95;11.70;;;;;;;13.62;100.00;94227.28;5080237;28;20044;-58
2023/09/08 05:22:19;;;;;;;20.10;12.27;;;;;;;13.49;100.00;94218.13;5085864;28;20051;-58
2023/09/08 05:24:46;;;;;;;18.17;11.68;;;;;;;13.39;100.00;94225.41;5088918;28;20104;-58
2023/09/08 05:27:13;;;;;;;17.63;11.60;;;;;;;13.43;100.00;94228.09;5089365;28;20100;-58
2023/09/08 05:29:39;;;;;;;18.95;12.30;;;;;;;13.51;100.00;94229.50;5088992;28;20594;-58
2023/09/08 05:32:06;;;;;;;17.80;11.52;;;;;;;13.48;100.00;94228.38;5089481;28;20039;-58
2023/09/08 05:34:33;;;;;;;17.53;11.27;;;;;;;13.62;100.00;94234.78;5088597;28;20051;-58
2023/09/08 05:36:59;;;;;;;16.73;11.18;;;;;;;13.69;100.00;94234.63;5088976;28;20071;-59
2023/09/08 05:39:26;;;;;;;16.83;10.65;;;;;;;13.76;100.00;94239.97;5088890;28;20036;-59
2023/09/08 05:41:53;;;;;;;17.02;11.13;;;;;;;13.86;100.00;94232.66;5089523;28;20044;-58
2023/09/08 05:44:20;;;;;;;17.08;11.13;;;;;;;13.92;100.00;94236.47;5085316;28;20044;-59
2023/09/08 05:46:47;;;;;;;16.23;11.20;;;;;;;13.96;100.00;94243.47;5079276;28;22040;-59
2023/09/08 05:49:14;;;;;;;17.15;11.25;;;;;;;14.00;100.00;94237.84;5089197;28;20040;-59
2023/09/08 05:51:41;;;;;;;17.40;11.25;;;;;;;13.95;100.00;94230.88;5088833;28;20056;-58
2023/09/08 05:54:07;;;;;;;18.73;11.55;;;;;;;14.09;100.00;94234.50;5089274;28;20480;-59
2023/09/08 05:56:34;;;;;;;16.42;11.35;;;;;;;14.29;100.00;94231.66;5082315;28;20040;-59
2023/09/08 05:59:01;;;;;;;18.33;11.17;;;;;;;14.35;100.00;94241.00;5069227;28;20501;-59
2023/09/08 06:01:30;;;;;;;18.00;11.57;;;;;;;14.52;100.00;94242.50;5068371;28;20033;-58
2023/09/08 06:03:57;;;;;;;17.42;11.38;;;;;;;14.61;100.00;94244.72;5082335;28;20047;-59
2023/09/08 06:06:25;;;;;;;19.27;11.50;;;;;;;15.02;100.00;94236.94;5089868;28;20512;-58
2023/09/08 06:08:52;;;;;;;17.45;11.52;;;;;;;15.35;100.00;94243.91;5093108;28;20035;-59
2023/09/08 06:11:18;;;;;;;16.87;11.13;;;;;;;15.86;100.00;94243.22;5093400;28;20044;-59
2023/09/08 06:13:45;;;;;;;18.50;11.00;;;;;;;15.97;100.00;94242.91;5097377;28;20040;-61
2023/09/08 06:16:12;;;;;;;17.58;11.43;;;;;;;16.30;100.00;94237.91;5102425;28;20044;-59
2023/09/08 06:18:41;;;;;;;19.60;10.82;;;;;;;16.34;100.00;94237.81;5092666;28;20047;-61
2023/09/08 06:21:08;;;;;;;15.15;10.30;;;;;;;16.53;100.00;94241.53;5102314;28;20059;-61
2023/09/08 06:23:35;;;;;;;16.00;10.13;;;;;;;16.42;100.00;94230.00;5092588;28;20485;-61
2023/09/08 06:26:03;;;;;;;15.23;10.60;;;;;;;16.36;100.00;94230.59;5092649;28;20514;-61
2023/09/08 06:28:30;;;;;;;16.98;10.48;;;;;;;16.35;100.00;94233.78;5092326;28;20552;-62
2023/09/08 06:30:57;;;;;;;15.05;10.88;;;;;;;16.23;100.00;94235.34;5092720;28;20054;-61
2023/09/08 06:33:24;;;;;;;15.05;10.55;;;;;;;16.17;100.00;94234.38;5082274;28;20052;-62
2023/09/08 06:35:53;;;;;;;16.23;10.73;;;;;;;16.12;100.00;94235.72;5088182;28;20044;-62
2023/09/08 06:38:20;;;;;;;16.08;10.05;;;;;;;16.44;100.00;94233.09;5092662;28;20056;-62
2023/09/08 06:40:47;;;;;;;18.20;10.25;;;;;;;16.83;100.00;94231.06;5091395;28;20672;-62
2023/09/08 06:43:14;;;;;;;13.55;9.63;;;;;;;17.06;100.00;94233.41;5094144;28;20485;-62
2023/09/08 06:45:41;;;;;;;14.77;10.20;;;;;;;16.98;100.00;94229.31;5091919;28;20683;-58
2023/09/08 06:48:08;;;;;;;13.40;9.53;;;;;;;17.11;100.00;94232.06;5092440;28;20046;-59
2023/09/08 06:50:35;;;;;;;13.52;9.52;;;;;;;17.37;100.00;94229.94;5100127;28;20039;-59
2023/09/08 06:53:02;;;;;;;13.00;9.48;;;;;;;19.61;100.00;94223.28;5093131;28;20040;-59
2023/09/08 06:55:28;;;;;;;13.52;9.15;;;;;;;22.83;100.00;94219.19;5091422;28;20052;-59
2023/09/08 06:57:55;;;;;;;13.05;8.77;;;;;;;24.32;100.00;94212.63;5092109;28;20036;-60
2023/09/08 07:00:22;;;;;;;12.60;8.17;;;;;;;25.40;93.55;94219.66;5091762;28;20036;-59
2023/09/08 07:02:49;;;;;;;11.25;8.18;;;;;;;26.30;85.42;94217.00;5090759;28;20044;-59
2023/09/08 07:05:16;;;;;;;10.05;8.20;;;;;;;26.38;85.62;94214.41;5092034;28;20042;-60
2023/09/08 07:07:43;;;;;;;10.95;8.20;;;;;;;27.14;79.97;94207.63;5091870;28;20043;-60
2023/09/08 07:10:11;;;;;;;14.18;8.02;;;;;;;27.63;75.72;94221.28;5092044;28;20044;-60
2023/09/08 07:12:37;;;;;;;10.23;7.50;;;;;;;29.54;68.08;94220.91;5091450;28;20385;-60
2023/09/08 07:15:05;;;;;;;9.82;8.02;;;;;;;29.80;63.23;94223.16;5092172;28;20059;-60
2023/09/08 07:17:32;;;;;;;11.55;7.72;;;;;;;28.96;64.74;94222.84;5089890;28;20056;-60
2023/09/08 07:19:59;;;;;;;12.15;7.70;;;;;;;28.19;69.74;94218.13;5092091;28;20092;-60
2023/09/08 07:22:26;;;;;;;12.27;8.40;;;;;;;28.74;66.43;94220.25;5091418;28;20557;-60
2023/09/08 07:24:52;;;;;;;11.10;8.30;;;;;;;30.18;61.76;94215.38;5083750;28;20052;-60
2023/09/08 07:27:20;;;;;;;9.95;7.60;;;;;;;30.85;58.66;94215.59;5087080;28;20051;-60
2023/09/08 07:29:47;;;;;;;8.90;7.53;;;;;;;31.87;55.01;94210.78;5090689;28;20539;-60
2023/09/08 07:32:14;;;;;;;9.77;7.80;;;;;;;32.88;52.74;94211.22;5091603;28;20044;-60
2023/09/08 07:34:41;;;;;;;8.95;8.00;;;;;;;32.65;50.44;94213.88;5091109;28;20052;-60
2023/09/08 07:37:08;;;;;;;10.13;7.57;;;;;;;31.72;52.22;94208.53;5091624;28;20040;-60
2023/09/08 07:39:35;;;;;;;9.32;7.53;;;;;;;31.85;52.50;94203.59;5091067;28;20040;-60
2023/09/08 07:42:02;;;;;;;9.15;7.38;;;;;;;33.94;47.73;94206.72;5091690;28;20378;-60
2023/09/08 07:44:29;;;;;;;9.43;7.85;;;;;;;33.85;46.17;94207.25;5091124;28;20048;-60
2023/09/08 07:46:56;;;;;;;9.13;7.32;;;;;;;33.18;46.67;94205.00;5091279;28;20058;-60
2023/09/08 07:49:23;;;;;;;8.77;7.10;;;;;;;33.66;47.62;94204.72;5090911;28;20112;-60
2023/09/08 07:51:50;;;;;;;9.68;7.07;;;;;;;34.84;45.01;94208.81;5091145;28;20036;-60
2023/09/08 07:54:17;;;;;;;9.57;7.20;;;;;;;33.99;44.25;94207.88;5091319;28;20046;-60
2023/09/08 07:56:46;;;;;;;12.07;7.50;;;;;;;32.83;48.04;94206.44;5090442;28;20446;-60
2023/09/08 07:59:13;;;;;;;11.40;7.70;;;;;;;34.41;45.11;94204.78;5091140;28;20036;-60
2023/09/08 08:01:40;;;;;;;8.23;6.87;;;;;;;35.39;43.27;94202.47;5090820;28;21989;-60
2023/09/08 08:04:07;;;;;;;9.45;7.18;;;;;;;36.14;41.01;94199.19;5090964;28;20052;-60
2023/09/08 08:06:34;;;;;;;8.38;7.40;;;;;;;35.16;42.11;94202.53;5090393;28;20052;-61
2023/09/08 08:09:01;;;;;;;8.88;7.28;;;;;;;36.40;40.17;94197.13;5091009;28;20040;-60
2023/09/08 08:11:29;;;;;;;8.88;6.90;;;;;;;36.58;39.92;94198.72;5090306;28;20048;-61
2023/09/08 08:13:56;;;;;;;8.83;6.70;;;;;;;37.23;39.10;94199.16;5090809;28;20038;-60
2023/09/08 08:16:24;;;;;;;8.48;6.63;;;;;;;38.12;36.70;94202.22;5090454;28;20481;-60
2023/09/08 08:18:52;;;;;;;8.98;6.72;;;;;;;38.42;36.31;94197.41;5090920;28;20044;-61
2023/09/08 08:21:19;;;;;;;10.38;6.82;;;;;;;38.21;35.52;94203.63;5090822;28;20058;-61
2023/09/08 08:23:46;;;;;;;9.13;6.80;;;;;;;38.49;36.02;94205.88;5089935;28;21557;-60
2023/09/08 08:26:13;;;;;;;9.80;7.60;;;;;;;37.87;36.08;94199.44;5090639;28;20050;-61
2023/09/08 08:28:40;;;;;;;8.88;6.60;;;;;;;38.95;34.71;94210.19;5089392;28;20036;-60
2023/09/08 08:31:06;;;;;;;9.38;6.80;;;;;;;38.74;34.62;94208.59;5089182;28;20408;-59
2023/09/08 08:33:33;;;;;;;9.05;7.10;;;;;;;36.76;38.34;94204.50;5089967;28;20055;-59
2023/09/08 08:36:00;;;;;;;9.02;7.35;;;;;;;37.79;36.82;94205.25;5090119;28;20036;-59
2023/09/08 08:38:27;;;;;;;9.80;7.53;;;;;;;39.06;34.71;94203.91;5090020;28;20370;-59
2023/09/08 08:40:54;;;;;;;8.25;7.40;;;;;;;38.14;35.72;94202.38;5090121;28;20036;-59
2023/09/08 08:43:22;;;;;;;11.65;8.20;;;;;;;35.94;40.36;94195.28;5089949;28;20040;-59
2023/09/08 08:45:50;;;;;;;8.45;6.93;;;;;;;39.32;35.52;94204.41;5076786;28;20051;-61
2023/09/08 08:48:20;;;;;;;10.02;7.30;;;;;;;40.52;33.33;94197.44;5090217;28;20381;-61
2023/09/08 08:50:47;;;;;;;8.30;7.13;;;;;;;40.30;33.50;94197.34;5089446;28;20475;-61
2023/09/08 08:53:17;;;;;;;10.25;6.93;;;;;;;41.45;31.46;94193.81;5090183;28;20044;-61
2023/09/08 08:55:46;;;;;;;10.73;6.60;;;;;;;41.04;31.94;94196.78;5089501;28;20094;-61
2023/09/08 08:58:14;;;;;;;9.07;7.10;;;;;;;38.28;34.94;94194.91;5090266;28;20048;-61
2023/09/08 09:00:41;;;;;;;8.07;7.20;;;;;;;38.16;36.33;94196.81;5089564;28;20050;-61
2023/09/08 09:03:09;;;;;;;7.97;6.90;;;;;;;39.13;34.77;94196.50;5090163;28;20412;-61
2023/09/08 09:05:43;;;;;;;9.55;7.35;;;;;;;37.27;38.23;94194.56;5089196;28;20050;-61
2023/09/08 09:08:31;;;;;;;8.77;6.68;;;;;;;41.21;32.75;94189.28;5089472;28;20100;-61
2023/09/08 09:10:58;;;;;;;7.72;6.80;;;;;;;39.98;34.04;94189.19;5089754;28;20040;-61
2023/09/08 09:13:24;;;;;;;9.18;6.18;;;;;;;38.25;36.07;94186.75;5089274;28;20112;-61
2023/09/08 09:15:51;;;;;;;7.37;6.20;;;;;;;39.27;35.21;94191.84;5087679;28;20047;-61
2023/09/08 09:18:18;;;;;;;8.90;6.20;;;;;;;37.85;37.22;94182.88;5089645;28;20111;-60
2023/09/08 09:20:55;;;;;;;7.38;6.57;;;;;;;34.84;42.37;94191.69;5089233;28;20040;-60
2023/09/08 09:23:33;;;;;;;7.22;6.00;;;;;;;39.30;34.86;94198.50;5077384;28;20514;-61
2023/09/08 09:26:03;;;;;;;7.82;6.95;;;;;;;36.30;38.32;94190.53;5089487;28;20048;-61
2023/09/08 09:28:30;;;;;;;8.70;6.07;;;;;;;38.15;37.60;94181.75;5089073;28;20399;-61
2023/09/08 09:30:59;;;;;;;10.02;6.82;;;;;;;38.65;35.86;94179.88;5089399;28;20040;-61
2023/09/08 09:33:28;;;;;;;7.22;6.50;;;;;;;34.20;42.63;94187.81;5088843;28;20048;-61
2023/09/08 09:35:55;;;;;;;7.72;6.53;;;;;;;33.03;47.18;94187.81;5088939;28;20049;-60
2023/09/08 09:38:22;;;;;;;9.02;7.35;;;;;;;32.55;52.36;94182.34;5088803;28;20537;-59
2023/09/08 09:40:49;;;;;;;8.57;6.90;;;;;;;33.25;52.96;94188.56;5088260;28;20402;-59
2023/09/08 09:43:17;;;;;;;8.30;7.50;;;;;;;31.45;59.10;94185.84;5089332;28;20050;-60
2023/09/08 09:45:44;;;;;;;8.93;6.82;;;;;;;33.37;54.93;94187.66;5084065;28;20045;-60
2023/09/08 09:48:12;;;;;;;9.95;7.50;;;;;;;36.22;45.20;94178.38;5080907;28;20044;-60
2023/09/08 09:50:41;;;;;;;8.73;7.10;;;;;;;35.89;42.55;94179.09;5088674;28;20074;-60
2023/09/08 09:53:18;;;;;;;8.07;6.30;;;;;;;40.48;34.92;94174.13;5089234;28;20114;-60
2023/09/08 09:55:46;;;;;;;7.40;6.38;;;;;;;38.02;38.95;94173.47;5088506;28;20077;-60
2023/09/08 09:58:14;;;;;;;7.90;6.57;;;;;;;38.65;36.27;94174.88;5074451;28;20044;-60
2023/09/08 10:00:41;;;;;;;6.43;5.70;;;;;;;38.51;37.16;94173.75;5088167;28;20048;-60
2023/09/08 10:03:08;;;;;;;8.98;6.28;;;;;;;33.33;44.46;94175.88;5088897;28;20044;-60
2023/09/08 10:05:37;;;;;;;6.70;5.80;;;;;;;37.90;38.84;94169.63;5088036;28;20458;-61
2023/09/08 10:08:04;;;;;;;7.32;6.20;;;;;;;36.84;39.44;94164.41;5089362;28;20048;-61
2023/09/08 10:10:34;;;;;;;7.38;6.00;;;;;;;36.20;39.95;94164.66;5088683;28;20056;-60
2023/09/08 10:13:05;;;;;;;7.47;6.50;;;;;;;32.69;48.41;94171.66;5089172;28;20040;-59
2023/09/08 10:15:33;;;;;;;7.80;7.00;;;;;;;31.03;57.94;94171.50;5088475;28;20040;-58
2023/09/08 10:18:04;;;;;;;10.07;7.43;;;;;;;30.45;62.90;94168.13;5088907;28;20043;-58
2023/09/08 10:20:32;;;;;;;10.05;7.18;;;;;;;33.66;53.23;94166.94;5088455;28;20048;-59
2023/09/08 10:23:09;;;;;;;7.82;7.00;;;;;;;35.84;45.11;94162.97;5089166;28;20477;-59
2023/09/08 10:25:43;;;;;;;7.28;6.32;;;;;;;35.85;43.54;94155.91;5088354;28;20040;-59
2023/09/08 10:28:10;;;;;;;7.90;6.60;;;;;;;38.31;39.06;94150.72;5088732;28;20048;-59
2023/09/08 10:30:37;;;;;;;8.20;6.30;;;;;;;38.69;36.93;94160.13;5088491;28;20043;-60
2023/09/08 10:33:06;;;;;;;10.07;6.68;;;;;;;35.62;42.50;94164.56;5088699;28;20118;-59
2023/09/08 10:35:33;;;;;;;8.13;7.10;;;;;;;34.89;45.04;94162.22;5087819;28;20044;-59
2023/09/08 10:38:22;;;;;;;9.38;6.97;;;;;;;37.83;39.95;94148.34;5088556;28;20101;-59
2023/09/08 10:40:50;;;;;;;8.73;6.50;;;;;;;34.80;43.70;94151.41;5088026;28;20042;-59
2023/09/08 10:43:18;;;;;;;8.93;7.00;;;;;;;34.74;44.62;94153.69;5088373;28;20212;-59
2023/09/08 10:45:46;;;;;;;7.95;6.90;;;;;;;35.63;43.44;94143.22;5088302;28;20047;-59
2023/09/08 10:48:15;;;;;;;8.90;6.97;;;;;;;34.42;45.25;94152.91;5088697;28;20577;-59
2023/09/08 10:50:43;;;;;;;8.70;7.28;;;;;;;35.56;42.66;94150.50;5088245;28;20040;-60
2023/09/08 10:53:17;;;;;;;7.53;6.63;;;;;;;34.27;43.83;94144.34;5092304;28;20044;-60
2023/09/08 10:55:52;;;;;;;8.63;6.90;;;;;;;32.82;48.36;94148.06;5091914;28;20032;-59
2023/09/08 10:58:42;;;;;;;9.38;7.15;;;;;;;34.17;47.63;94138.47;5081883;28;20065;-60
2023/09/08 11:01:16;;;;;;;9.05;7.00;;;;;;;33.70;47.93;94144.56;5091949;28;20075;-60
2023/09/08 11:03:47;;;;;;;9.00;7.60;;;;;;;32.70;50.20;94136.25;5091769;28;20043;-60
2023/09/08 11:06:17;;;;;;;7.97;7.10;;;;;;;33.33;50.75;94132.47;5091446;28;20074;-60
2023/09/08 11:08:45;;;;;;;10.27;7.33;;;;;;;33.17;49.70;94132.38;5091762;28;20458;-59
2023/09/08 11:11:13;;;;;;;8.82;7.70;;;;;;;31.87;53.10;94134.13;5092017;28;20089;-59
2023/09/08 11:13:41;;;;;;;8.20;7.40;;;;;;;32.93;50.23;94141.31;5091211;28;20496;-60
2023/09/08 11:16:08;;;;;;;9.20;7.47;;;;;;;31.19;56.30;94135.59;5091926;28;20050;-59
2023/09/08 11:18:36;;;;;;;8.88;7.43;;;;;;;32.18;54.62;94132.41;5091103;28;20048;-59
2023/09/08 11:21:08;;;;;;;8.90;7.37;;;;;;;33.65;49.49;94131.28;5091805;28;20056;-60
2023/09/08 11:23:35;;;;;;;8.80;7.00;;;;;;;31.49;55.55;94135.22;5090766;28;20039;-59